sensor_id;sensor_type;location;lat;lon;timestamp;pressure;altitude;pressure_sealevel;temperature;humidity
45255;BME280;30989;52.078;21.014;2023-02-17T00:02:03;164700.13;;;3.63;100.00
45255;BME280;30989;52.078;21.014;2023-02-17T00:04:30;164694.78;;;3.61;100.00
45255;BME280;30989;52.078;21.014;2023-02-17T00:06:56;164704.09;;;3.64;100.00
45255;BME280;30989;52.078;21.014;2023-02-17T00:09:22;164702.78;;;3.64;100.00
45255;BME280;30989;52.078;21.014;2023-02-17T00:11:47;164718.78;;;3.70;100.00
45255;BME280;30989;52.078;21.014;2023-02-17T00:14:13;164713.44;;;3.68;100.00
45255;BME280;30989;52.078;21.014;2023-02-17T00:16:39;164713.44;;;3.68;100.00
45255;BME280;30989;52.078;21.014;2023-02-17T00:19:05;164729.44;;;3.74;100.00
45255;BME280;30989;52.078;21.014;2023-02-17T00:21:51;164732.09;;;3.75;100.00
45255;BME280;30989;52.078;21.014;2023-02-17T00:24:16;164730.78;;;3.74;100.00
45255;BME280;30989;52.078;21.014;2023-02-17T00:26:42;164713.44;;;3.68;100.00
45255;BME280;30989;52.078;21.014;2023-02-17T00:29:08;164734.78;;;3.76;100.00
45255;BME280;30989;52.078;21.014;2023-02-17T00:31:33;164725.44;;;3.72;100.00
45255;BME280;30989;52.078;21.014;2023-02-17T00:33:58;164742.78;;;3.79;100.00
45255;BME280;30989;52.078;21.014;2023-02-17T00:36:25;164725.44;;;3.72;100.00
45255;BME280;30989;52.078;21.014;2023-02-17T00:38:53;164729.44;;;3.74;100.00
45255;BME280;30989;52.078;21.014;2023-02-17T00:41:19;164721.44;;;3.71;100.00
45255;BME280;30989;52.078;21.014;2023-02-17T00:43:46;164725.44;;;3.72;100.00
45255;BME280;30989;52.078;21.014;2023-02-17T00:46:15;164713.44;;;3.68;100.00
45255;BME280;30989;52.078;21.014;2023-02-17T00:48:41;164729.44;;;3.74;100.00
45255;BME280;30989;52.078;21.014;2023-02-17T00:51:06;164714.78;;;3.68;100.00
45255;BME280;30989;52.078;21.014;2023-02-17T00:53:33;164734.78;;;3.76;100.00
45255;BME280;30989;52.078;21.014;2023-02-17T00:55:59;164713.44;;;3.68;100.00
45255;BME280;30989;52.078;21.014;2023-02-17T00:58:24;164732.09;;;3.75;100.00
45255;BME280;30989;52.078;21.014;2023-02-17T01:00:50;164737.44;;;3.77;100.00
45255;BME280;30989;52.078;21.014;2023-02-17T01:03:17;164736.09;;;3.76;100.00
45255;BME280;30989;52.078;21.014;2023-02-17T01:05:47;164734.78;;;3.76;100.00
45255;BME280;30989;52.078;21.014;2023-02-17T01:08:14;164740.09;;;3.78;100.00
45255;BME280;30989;52.078;21.014;2023-02-17T01:10:41;164726.78;;;3.73;100.00
45255;BME280;30989;52.078;21.014;2023-02-17T01:13:08;164737.44;;;3.77;100.00
45255;BME280;30989;52.078;21.014;2023-02-17T01:15:45;164729.44;;;3.74;100.00
45255;BME280;30989;52.078;21.014;2023-02-17T01:18:12;164728.09;;;3.73;100.00
45255;BME280;30989;52.078;21.014;2023-02-17T01:20:38;164721.44;;;3.71;100.00
45255;BME280;30989;52.078;21.014;2023-02-17T01:23:05;164688.13;;;3.58;100.00
45255;BME280;30989;52.078;21.014;2023-02-17T01:25:35;164700.13;;;3.63;100.00
45255;BME280;30989;52.078;21.014;2023-02-17T01:28:01;164689.44;;;3.59;100.00
45255;BME280;30989;52.078;21.014;2023-02-17T01:30:26;164677.44;;;3.54;100.00
45255;BME280;30989;52.078;21.014;2023-02-17T01:32:52;164676.13;;;3.53;100.00
45255;BME280;30989;52.078;21.014;2023-02-17T01:35:17;164668.13;;;3.50;100.00
45255;BME280;30989;52.078;21.014;2023-02-17T01:37:43;164666.78;;;3.50;100.00
45255;BME280;30989;52.078;21.014;2023-02-17T01:40:11;164662.78;;;3.48;100.00
45255;BME280;30989;52.078;21.014;2023-02-17T01:42:37;164654.78;;;3.45;100.00
45255;BME280;30989;52.078;21.014;2023-02-17T01:50:20;164652.13;;;3.44;100.00
45255;BME280;30989;52.078;21.014;2023-02-17T01:52:47;164642.78;;;3.41;100.00
45255;BME280;30989;52.078;21.014;2023-02-17T01:55:15;164644.13;;;3.41;100.00
45255;BME280;30989;52.078;21.014;2023-02-17T01:57:44;164641.47;;;3.40;100.00
45255;BME280;30989;52.078;21.014;2023-02-17T02:00:11;164633.47;;;3.37;100.00
45255;BME280;30989;52.078;21.014;2023-02-17T02:02:43;164610.81;;;3.29;100.00
45255;BME280;30989;52.078;21.014;2023-02-17T02:05:12;164614.81;;;3.30;100.00
45255;BME280;30989;52.078;21.014;2023-02-17T02:07:40;164629.47;;;3.36;100.00
45255;BME280;30989;52.078;21.014;2023-02-17T02:10:09;164628.13;;;3.35;100.00
45255;BME280;30989;52.078;21.014;2023-02-17T02:12:36;164636.13;;;3.38;100.00
45255;BME280;30989;52.078;21.014;2023-02-17T02:20:32;164620.13;;;3.32;100.00
45255;BME280;30989;52.078;21.014;2023-02-17T02:26:01;164626.81;;;3.35;100.00
45255;BME280;30989;52.078;21.014;2023-02-17T02:34:29;164617.47;;;3.31;100.00
45255;BME280;30989;52.078;21.014;2023-02-17T02:37:08;164634.78;;;3.38;100.00
45255;BME280;30989;52.078;21.014;2023-02-17T02:39:43;164628.13;;;3.35;100.00
45255;BME280;30989;52.078;21.014;2023-02-17T02:42:14;164636.13;;;3.38;100.00
45255;BME280;30989;52.078;21.014;2023-02-17T02:44:40;164641.47;;;3.40;100.00
45255;BME280;30989;52.078;21.014;2023-02-17T02:47:45;164644.13;;;3.41;100.00
45255;BME280;30989;52.078;21.014;2023-02-17T02:50:20;164648.13;;;3.43;100.00
45255;BME280;30989;52.078;21.014;2023-02-17T02:53:26;164652.13;;;3.44;100.00
45255;BME280;30989;52.078;21.014;2023-02-17T02:58:58;164646.78;;;3.42;100.00
45255;BME280;30989;52.078;21.014;2023-02-17T03:01:37;164654.78;;;3.45;100.00
45255;BME280;30989;52.078;21.014;2023-02-17T03:09:20;164673.44;;;3.52;100.00
45255;BME280;30989;52.078;21.014;2023-02-17T03:11:47;164665.47;;;3.49;100.00
45255;BME280;30989;52.078;21.014;2023-02-17T03:14:17;164684.13;;;3.56;100.00
45255;BME280;30989;52.078;21.014;2023-02-17T03:16:43;164681.44;;;3.55;100.00
45255;BME280;30989;52.078;21.014;2023-02-17T03:19:10;164692.13;;;3.60;100.00
45255;BME280;30989;52.078;21.014;2023-02-17T03:21:42;164689.44;;;3.59;100.00
45255;BME280;30989;52.078;21.014;2023-02-17T03:24:11;164685.44;;;3.57;100.00
45255;BME280;30989;52.078;21.014;2023-02-17T03:26:37;164689.44;;;3.59;100.00
45255;BME280;30989;52.078;21.014;2023-02-17T03:29:02;164692.13;;;3.60;100.00
45255;BME280;30989;52.078;21.014;2023-02-17T03:31:28;164694.78;;;3.61;100.00
45255;BME280;30989;52.078;21.014;2023-02-17T03:33:54;164696.13;;;3.61;100.00
45255;BME280;30989;52.078;21.014;2023-02-17T03:36:19;164702.78;;;3.64;100.00
45255;BME280;30989;52.078;21.014;2023-02-17T03:38:45;164696.13;;;3.61;100.00
45255;BME280;30989;52.078;21.014;2023-02-17T03:41:10;164686.78;;;3.58;100.00
45255;BME280;30989;52.078;21.014;2023-02-17T03:43:35;164689.44;;;3.59;100.00
45255;BME280;30989;52.078;21.014;2023-02-17T03:46:01;164685.44;;;3.57;100.00
45255;BME280;30989;52.078;21.014;2023-02-17T03:48:27;164668.13;;;3.50;100.00
45255;BME280;30989;52.078;21.014;2023-02-17T03:50:53;164661.44;;;3.48;100.00
45255;BME280;30989;52.078;21.014;2023-02-17T03:53:18;164649.47;;;3.43;100.00
45255;BME280;30989;52.078;21.014;2023-02-17T03:55:44;164644.13;;;3.41;100.00
45255;BME280;30989;52.078;21.014;2023-02-17T03:58:09;164636.13;;;3.38;100.00
45255;BME280;30989;52.078;21.014;2023-02-17T04:00:35;164633.47;;;3.37;100.00
45255;BME280;30989;52.078;21.014;2023-02-17T04:03:00;164625.47;;;3.34;100.00
45255;BME280;30989;52.078;21.014;2023-02-17T04:05:26;164632.13;;;3.37;100.00
45255;BME280;30989;52.078;21.014;2023-02-17T04:07:51;164636.13;;;3.38;100.00
45255;BME280;30989;52.078;21.014;2023-02-17T04:10:17;164628.13;;;3.35;100.00
45255;BME280;30989;52.078;21.014;2023-02-17T04:12:42;164630.78;;;3.36;100.00
45255;BME280;30989;52.078;21.014;2023-02-17T04:15:08;164625.47;;;3.34;100.00
45255;BME280;30989;52.078;21.014;2023-02-17T04:17:37;164621.47;;;3.33;100.00
45255;BME280;30989;52.078;21.014;2023-02-17T04:20:05;164628.13;;;3.35;100.00
45255;BME280;30989;52.078;21.014;2023-02-17T04:22:31;164624.13;;;3.34;100.00
45255;BME280;30989;52.078;21.014;2023-02-17T04:24:56;164617.47;;;3.31;100.00
45255;BME280;30989;52.078;21.014;2023-02-17T04:27:21;164617.47;;;3.31;100.00
45255;BME280;30989;52.078;21.014;2023-02-17T04:29:47;164618.81;;;3.32;100.00
45255;BME280;30989;52.078;21.014;2023-02-17T04:32:12;164617.47;;;3.31;100.00
45255;BME280;30989;52.078;21.014;2023-02-17T04:34:38;164610.81;;;3.29;100.00
45255;BME280;30989;52.078;21.014;2023-02-17T04:37:03;164592.16;;;3.21;100.00
45255;BME280;30989;52.078;21.014;2023-02-17T04:39:29;164601.47;;;3.25;100.00
45255;BME280;30989;52.078;21.014;2023-02-17T04:41:54;164608.13;;;3.28;100.00
45255;BME280;30989;52.078;21.014;2023-02-17T04:44:20;164608.13;;;3.28;100.00
45255;BME280;30989;52.078;21.014;2023-02-17T04:46:45;164593.47;;;3.22;100.00
45255;BME280;30989;52.078;21.014;2023-02-17T04:49:10;164596.16;;;3.23;100.00
45255;BME280;30989;52.078;21.014;2023-02-17T04:51:36;164605.47;;;3.27;100.00
45255;BME280;30989;52.078;21.014;2023-02-17T04:54:01;164604.13;;;3.26;100.00
45255;BME280;30989;52.078;21.014;2023-02-17T04:56:27;164606.81;;;3.27;100.00
45255;BME280;30989;52.078;21.014;2023-02-17T04:58:52;164590.81;;;3.21;100.00
45255;BME280;30989;52.078;21.014;2023-02-17T05:01:18;164604.13;;;3.26;100.00
45255;BME280;30989;52.078;21.014;2023-02-17T05:03:43;164606.81;;;3.27;100.00
45255;BME280;30989;52.078;21.014;2023-02-17T05:06:08;164606.81;;;3.27;100.00
45255;BME280;30989;52.078;21.014;2023-02-17T05:08:34;164601.47;;;3.25;100.00
45255;BME280;30989;52.078;21.014;2023-02-17T05:10:59;164613.47;;;3.30;100.00
45255;BME280;30989;52.078;21.014;2023-02-17T05:13:25;164617.47;;;3.31;100.00
45255;BME280;30989;52.078;21.014;2023-02-17T05:15:52;164620.13;;;3.32;100.00
45255;BME280;30989;52.078;21.014;2023-02-17T05:18:17;164621.47;;;3.33;100.00
45255;BME280;30989;52.078;21.014;2023-02-17T05:20:43;164622.81;;;3.33;100.00
45255;BME280;30989;52.078;21.014;2023-02-17T05:23:08;164617.47;;;3.31;100.00
45255;BME280;30989;52.078;21.014;2023-02-17T05:25:34;164625.47;;;3.34;100.00
45255;BME280;30989;52.078;21.014;2023-02-17T05:28:00;164622.81;;;3.33;100.00
45255;BME280;30989;52.078;21.014;2023-02-17T05:30:25;164630.78;;;3.36;100.00
45255;BME280;30989;52.078;21.014;2023-02-17T05:32:51;164638.78;;;3.39;100.00
45255;BME280;30989;52.078;21.014;2023-02-17T05:35:16;164638.78;;;3.39;100.00
45255;BME280;30989;52.078;21.014;2023-02-17T05:37:41;164644.13;;;3.41;100.00
45255;BME280;30989;52.078;21.014;2023-02-17T05:40:07;164644.13;;;3.41;100.00
45255;BME280;30989;52.078;21.014;2023-02-17T05:42:33;164621.47;;;3.33;100.00
45255;BME280;30989;52.078;21.014;2023-02-17T05:44:59;164625.47;;;3.34;100.00
45255;BME280;30989;52.078;21.014;2023-02-17T05:47:24;164612.13;;;3.29;100.00
45255;BME280;30989;52.078;21.014;2023-02-17T05:49:49;164608.13;;;3.28;100.00
45255;BME280;30989;52.078;21.014;2023-02-17T05:52:15;164597.47;;;3.23;100.00
45255;BME280;30989;52.078;21.014;2023-02-17T05:54:42;164593.47;;;3.22;100.00
45255;BME280;30989;52.078;21.014;2023-02-17T05:57:08;164582.81;;;3.18;100.00
45255;BME280;30989;52.078;21.014;2023-02-17T05:59:33;164570.81;;;3.13;100.00
45255;BME280;30989;52.078;21.014;2023-02-17T06:01:59;164564.16;;;3.11;100.00
45255;BME280;30989;52.078;21.014;2023-02-17T06:04:24;164556.16;;;3.08;100.00
45255;BME280;30989;52.078;21.014;2023-02-17T06:06:49;164556.16;;;3.08;100.00
45255;BME280;30989;52.078;21.014;2023-02-17T06:09:15;164546.84;;;3.04;100.00
45255;BME280;30989;52.078;21.014;2023-02-17T06:11:41;164536.19;;;3.00;100.00
45255;BME280;30989;52.078;21.014;2023-02-17T06:14:06;164529.50;;;2.98;100.00
45255;BME280;30989;52.078;21.014;2023-02-17T06:16:32;164525.53;;;2.96;100.00
45255;BME280;30989;52.078;21.014;2023-02-17T06:18:57;164526.84;;;2.97;100.00
45255;BME280;30989;52.078;21.014;2023-02-17T06:21:24;164526.84;;;2.97;100.00
45255;BME280;30989;52.078;21.014;2023-02-17T06:23:50;164525.53;;;2.96;100.00
45255;BME280;30989;52.078;21.014;2023-02-17T06:26:15;164525.53;;;2.96;100.00
45255;BME280;30989;52.078;21.014;2023-02-17T06:28:42;164524.19;;;2.96;100.00
45255;BME280;30989;52.078;21.014;2023-02-17T06:31:08;164529.50;;;2.98;100.00
45255;BME280;30989;52.078;21.014;2023-02-17T06:33:34;164529.50;;;2.98;100.00
45255;BME280;30989;52.078;21.014;2023-02-17T06:35:59;164530.84;;;2.98;100.00
45255;BME280;30989;52.078;21.014;2023-02-17T06:38:24;164529.50;;;2.98;100.00
45255;BME280;30989;52.078;21.014;2023-02-17T06:40:50;164529.50;;;2.98;100.00
45255;BME280;30989;52.078;21.014;2023-02-17T06:43:15;164540.16;;;3.02;100.00
45255;BME280;30989;52.078;21.014;2023-02-17T06:45:41;164542.84;;;3.03;100.00
45255;BME280;30989;52.078;21.014;2023-02-17T06:48:06;164534.84;;;3.00;100.00
45255;BME280;30989;52.078;21.014;2023-02-17T06:50:32;164550.84;;;3.06;100.00
45255;BME280;30989;52.078;21.014;2023-02-17T06:52:57;164537.50;;;3.01;100.00
45255;BME280;30989;52.078;21.014;2023-02-17T06:55:23;164546.84;;;3.04;100.00
45255;BME280;30989;52.078;21.014;2023-02-17T06:57:48;164546.84;;;3.04;100.00
45255;BME280;30989;52.078;21.014;2023-02-17T07:00:14;164564.16;;;3.11;100.00
45255;BME280;30989;52.078;21.014;2023-02-17T07:02:39;164566.81;;;3.12;100.00
45255;BME280;30989;52.078;21.014;2023-02-17T07:05:06;164577.50;;;3.16;100.00
45255;BME280;30989;52.078;21.014;2023-02-17T07:07:32;164568.16;;;3.12;100.00
45255;BME280;30989;52.078;21.014;2023-02-17T07:09:57;164586.81;;;3.19;100.00
45255;BME280;30989;52.078;21.014;2023-02-17T07:12:23;164566.81;;;3.12;100.00
45255;BME280;30989;52.078;21.014;2023-02-17T07:14:48;164592.16;;;3.21;100.00
45255;BME280;30989;52.078;21.014;2023-02-17T07:17:14;164605.47;;;3.27;100.00
45255;BME280;30989;52.078;21.014;2023-02-17T07:19:39;164614.81;;;3.30;100.00
45255;BME280;30989;52.078;21.014;2023-02-17T07:22:05;164638.78;;;3.39;100.00
45255;BME280;30989;52.078;21.014;2023-02-17T07:24:30;164656.13;;;3.46;100.00
45255;BME280;30989;52.078;21.014;2023-02-17T07:26:56;164694.78;;;3.61;100.00
45255;BME280;30989;52.078;21.014;2023-02-17T07:29:22;164718.78;;;3.70;100.00
45255;BME280;30989;52.078;21.014;2023-02-17T07:31:47;164744.09;;;3.79;100.00
45255;BME280;30989;52.078;21.014;2023-02-17T07:34:13;164750.78;;;3.82;100.00
45255;BME280;30989;52.078;21.014;2023-02-17T07:36:38;164772.09;;;3.90;100.00
45255;BME280;30989;52.078;21.014;2023-02-17T07:39:04;164792.13;;;3.98;100.00
45255;BME280;30989;52.078;21.014;2023-02-17T07:41:29;164796.09;;;3.99;100.00
45255;BME280;30989;52.078;21.014;2023-02-17T07:43:58;164812.09;;;4.05;100.00
45255;BME280;30989;52.078;21.014;2023-02-17T07:46:25;164822.78;;;4.09;100.00
45255;BME280;30989;52.078;21.014;2023-02-17T07:48:51;164828.13;;;4.11;100.00
45255;BME280;30989;52.078;21.014;2023-02-17T07:51:19;164862.78;;;4.25;100.00
45255;BME280;30989;52.078;21.014;2023-02-17T07:53:45;164873.47;;;4.29;100.00
45255;BME280;30989;52.078;21.014;2023-02-17T07:56:12;164900.13;;;4.39;100.00
45255;BME280;30989;52.078;21.014;2023-02-17T07:58:40;164926.81;;;4.49;100.00
45255;BME280;30989;52.078;21.014;2023-02-17T08:01:07;164942.81;;;4.55;100.00
45255;BME280;30989;52.078;21.014;2023-02-17T08:03:33;164950.81;;;4.58;100.00
45255;BME280;30989;52.078;21.014;2023-02-17T08:05:59;164966.84;;;4.64;100.00
45255;BME280;30989;52.078;21.014;2023-02-17T08:08:24;164984.19;;;4.71;100.00
45255;BME280;30989;52.078;21.014;2023-02-17T08:11:12;165014.84;;;4.82;100.00
45255;BME280;30989;52.078;21.014;2023-02-17T08:13:56;165028.22;;;4.88;100.00
45255;BME280;30989;52.078;21.014;2023-02-17T08:16:21;165052.22;;;4.97;100.00
45255;BME280;30989;52.078;21.014;2023-02-17T08:18:47;165058.91;;;4.99;100.00
45255;BME280;30989;52.078;21.014;2023-02-17T08:21:12;165040.22;;;4.92;100.00
45255;BME280;30989;52.078;21.014;2023-02-17T08:23:38;165062.91;;;5.01;100.00
45255;BME280;30989;52.078;21.014;2023-02-17T08:26:03;165078.91;;;5.07;100.00
45255;BME280;30989;52.078;21.014;2023-02-17T08:28:29;165084.25;;;5.09;100.00
45255;BME280;30989;52.078;21.014;2023-02-17T08:30:54;165066.91;;;5.02;100.00
45255;BME280;30989;52.078;21.014;2023-02-17T08:33:20;165094.91;;;5.13;100.00
45255;BME280;30989;52.078;21.014;2023-02-17T08:35:45;165090.91;;;5.11;100.00
45255;BME280;30989;52.078;21.014;2023-02-17T08:38:11;165104.28;;;5.16;100.00
45255;BME280;30989;52.078;21.014;2023-02-17T08:40:36;165106.94;;;5.17;100.00
45255;BME280;30989;52.078;21.014;2023-02-17T08:43:02;165106.94;;;5.17;100.00
45255;BME280;30989;52.078;21.014;2023-02-17T08:45:27;165104.28;;;5.16;100.00
45255;BME280;30989;52.078;21.014;2023-02-17T08:47:54;165129.69;;;5.26;100.00
45255;BME280;30989;52.078;21.014;2023-02-17T08:50:20;165143.03;;;5.31;100.00
45255;BME280;30989;52.078;21.014;2023-02-17T08:52:47;165084.25;;;5.09;100.00
45255;BME280;30989;52.078;21.014;2023-02-17T08:55:12;165171.06;;;5.42;100.00
45255;BME280;30989;52.078;21.014;2023-02-17T08:57:39;165157.69;;;5.37;100.00
45255;BME280;30989;52.078;21.014;2023-02-17T09:00:06;165188.41;;;5.48;100.00
45255;BME280;30989;52.078;21.014;2023-02-17T09:02:32;165188.41;;;5.48;100.00
45255;BME280;30989;52.078;21.014;2023-02-17T09:04:58;165200.41;;;5.53;100.00
45255;BME280;30989;52.078;21.014;2023-02-17T09:07:23;165216.44;;;5.59;100.00
45255;BME280;30989;52.078;21.014;2023-02-17T09:09:49;165204.41;;;5.55;100.00
45255;BME280;30989;52.078;21.014;2023-02-17T09:12:14;165191.06;;;5.49;100.00
45255;BME280;30989;52.078;21.014;2023-02-17T09:14:39;165175.06;;;5.43;100.00
45255;BME280;30989;52.078;21.014;2023-02-17T09:17:05;165184.41;;;5.47;100.00
45255;BME280;30989;52.078;21.014;2023-02-17T09:19:31;165183.06;;;5.46;100.00
45255;BME280;30989;52.078;21.014;2023-02-17T09:21:56;165191.06;;;5.49;100.00
45255;BME280;30989;52.078;21.014;2023-02-17T09:24:21;165203.09;;;5.54;100.00
45255;BME280;30989;52.078;21.014;2023-02-17T09:26:47;165213.75;;;5.58;100.00
45255;BME280;30989;52.078;21.014;2023-02-17T09:29:12;165209.75;;;5.57;100.00
45255;BME280;30989;52.078;21.014;2023-02-17T09:31:38;165224.44;;;5.62;100.00
45255;BME280;30989;52.078;21.014;2023-02-17T09:34:05;165245.81;;;5.70;100.00
45255;BME280;30989;52.078;21.014;2023-02-17T09:36:36;165253.81;;;5.73;100.00
45255;BME280;30989;52.078;21.014;2023-02-17T09:39:02;165273.84;;;5.81;100.00
45255;BME280;30989;52.078;21.014;2023-02-17T09:41:37;165295.25;;;5.89;100.00
45255;BME280;30989;52.078;21.014;2023-02-17T09:44:05;165317.97;;;5.98;100.00
45255;BME280;30989;52.078;21.014;2023-02-17T09:46:34;165336.66;;;6.05;100.00
45255;BME280;30989;52.078;21.014;2023-02-17T09:49:13;165360.69;;;6.14;100.00
45255;BME280;30989;52.078;21.014;2023-02-17T09:52:04;165375.38;;;6.20;100.00
45255;BME280;30989;52.078;21.014;2023-02-17T09:54:35;165379.38;;;6.21;100.00
45255;BME280;30989;52.078;21.014;2023-02-17T09:57:02;165391.41;;;6.26;100.00
45255;BME280;30989;52.078;21.014;2023-02-17T09:59:54;165388.72;;;6.25;100.00
45255;BME280;30989;52.078;21.014;2023-02-17T10:05:22;165371.38;;;6.18;100.00
45255;BME280;30989;52.078;21.014;2023-02-17T10:07:53;165363.34;;;6.15;100.00
45255;BME280;30989;52.078;21.014;2023-02-17T10:10:30;165359.34;;;6.13;100.00
45255;BME280;30989;52.078;21.014;2023-02-17T10:12:57;165350.00;;;6.10;100.00
45255;BME280;30989;52.078;21.014;2023-02-17T10:15:28;165333.97;;;6.04;100.00
45255;BME280;30989;52.078;21.014;2023-02-17T10:20:29;165255.16;;;5.74;100.00
45255;BME280;30989;52.078;21.014;2023-02-17T10:23:03;165236.47;;;5.67;100.00
45255;BME280;30989;52.078;21.014;2023-02-17T10:28:12;165189.75;;;5.49;100.00
45255;BME280;30989;52.078;21.014;2023-02-17T10:30:49;165177.72;;;5.44;100.00
45255;BME280;30989;52.078;21.014;2023-02-17T10:39:41;165153.69;;;5.35;100.00
45255;BME280;30989;52.078;21.014;2023-02-17T10:42:21;165148.34;;;5.33;100.00
45255;BME280;30989;52.078;21.014;2023-02-17T10:44:50;165137.69;;;5.29;100.00
45255;BME280;30989;52.078;21.014;2023-02-17T10:47:18;165129.69;;;5.26;100.00
45255;BME280;30989;52.078;21.014;2023-02-17T10:49:49;165121.66;;;5.23;100.00
45255;BME280;30989;52.078;21.014;2023-02-17T10:52:17;165123.00;;;5.24;100.00
45255;BME280;30989;52.078;21.014;2023-02-17T10:54:59;165127.00;;;5.25;100.00
45255;BME280;30989;52.078;21.014;2023-02-17T10:57:34;165124.34;;;5.24;100.00
45255;BME280;30989;52.078;21.014;2023-02-17T11:00:03;165117.66;;;5.22;100.00
45255;BME280;30989;52.078;21.014;2023-02-17T11:02:33;165109.59;;;5.18;100.00
45255;BME280;30989;52.078;21.014;2023-02-17T11:05:00;165096.25;;;5.13;100.00
45255;BME280;30989;52.078;21.014;2023-02-17T11:07:33;165092.25;;;5.12;100.00
45255;BME280;30989;52.078;21.014;2023-02-17T11:10:01;165092.25;;;5.12;100.00
45255;BME280;30989;52.078;21.014;2023-02-17T11:12:32;165093.59;;;5.12;100.00
45255;BME280;30989;52.078;21.014;2023-02-17T11:15:02;165092.25;;;5.12;100.00
45255;BME280;30989;52.078;21.014;2023-02-17T11:17:37;165104.28;;;5.16;100.00
45255;BME280;30989;52.078;21.014;2023-02-17T11:22:46;165116.31;;;5.21;100.00
45255;BME280;30989;52.078;21.014;2023-02-17T11:25:26;165112.28;;;5.19;100.00
45255;BME280;30989;52.078;21.014;2023-02-17T11:27:57;165124.34;;;5.24;100.00
45255;BME280;30989;52.078;21.014;2023-02-17T11:30:24;165110.94;;;5.19;100.00
45255;BME280;30989;52.078;21.014;2023-02-17T11:32:50;165117.66;;;5.22;100.00
45255;BME280;30989;52.078;21.014;2023-02-17T11:36:04;165149.69;;;5.34;100.00
45255;BME280;30989;52.078;21.014;2023-02-17T11:38:16;165169.72;;;5.41;100.00
45255;BME280;30989;52.078;21.014;2023-02-17T11:41:00;165201.75;;;5.54;100.00
45255;BME280;30989;52.078;21.014;2023-02-17T11:43:28;165221.78;;;5.61;100.00
45255;BME280;30989;52.078;21.014;2023-02-17T11:46:01;165247.13;;;5.71;100.00
45255;BME280;30989;52.078;21.014;2023-02-17T11:48:37;165265.84;;;5.78;100.00
45255;BME280;30989;52.078;21.014;2023-02-17T11:51:21;165281.84;;;5.84;100.00
45255;BME280;30989;52.078;21.014;2023-02-17T11:56:35;165292.53;;;5.88;100.00
45255;BME280;30989;52.078;21.014;2023-02-17T11:59:14;165295.25;;;5.89;100.00
45255;BME280;30989;52.078;21.014;2023-02-17T12:05:05;165300.59;;;5.91;100.00
45255;BME280;30989;52.078;21.014;2023-02-17T12:11:03;165292.53;;;5.88;100.00
45255;BME280;30989;52.078;21.014;2023-02-17T12:16:50;165303.28;;;5.92;100.00
45255;BME280;30989;52.078;21.014;2023-02-17T12:19:40;165308.59;;;5.94;100.00
45255;BME280;30989;52.078;21.014;2023-02-17T12:22:17;165316.63;;;5.97;100.00
45255;BME280;30989;52.078;21.014;2023-02-17T12:27:46;165313.94;;;5.96;100.00
45255;BME280;30989;52.078;21.014;2023-02-17T12:30:25;165316.63;;;5.97;100.00
45255;BME280;30989;52.078;21.014;2023-02-17T12:35:37;165305.94;;;5.93;100.00
45255;BME280;30989;52.078;21.014;2023-02-17T12:38:16;165301.94;;;5.92;100.00
45255;BME280;30989;52.078;21.014;2023-02-17T12:41:04;165312.63;;;5.96;100.00
45255;BME280;30989;52.078;21.014;2023-02-17T12:43:39;165319.28;;;5.98;100.00
45255;BME280;30989;52.078;21.014;2023-02-17T12:46:11;165331.31;;;6.03;100.00
45255;BME280;30989;52.078;21.014;2023-02-17T12:51:49;165346.00;;;6.08;100.00
45255;BME280;30989;52.078;21.014;2023-02-17T12:54:21;165344.66;;;6.08;100.00
45255;BME280;30989;52.078;21.014;2023-02-17T12:59:37;165338.00;;;6.05;100.00
45255;BME280;30989;52.078;21.014;2023-02-17T13:02:23;165335.31;;;6.04;100.00
45255;BME280;30989;52.078;21.014;2023-02-17T13:04:52;165336.66;;;6.05;100.00
45255;BME280;30989;52.078;21.014;2023-02-17T13:07:36;165336.66;;;6.05;100.00
45255;BME280;30989;52.078;21.014;2023-02-17T13:10:04;165338.00;;;6.05;100.00
45255;BME280;30989;52.078;21.014;2023-02-17T13:12:39;165333.97;;;6.04;100.00
45255;BME280;30989;52.078;21.014;2023-02-17T13:15:27;165332.66;;;6.03;100.00
45255;BME280;30989;52.078;21.014;2023-02-17T13:17:59;165325.97;;;6.01;100.00
45255;BME280;30989;52.078;21.014;2023-02-17T13:20:39;165323.28;;;6.00;100.00
45255;BME280;30989;52.078;21.014;2023-02-17T13:23:12;165319.28;;;5.98;100.00
45255;BME280;30989;52.078;21.014;2023-02-17T13:25:39;165324.63;;;6.00;100.00
45255;BME280;30989;52.078;21.014;2023-02-17T13:28:32;165325.97;;;6.01;100.00
45255;BME280;30989;52.078;21.014;2023-02-17T13:31:25;165323.28;;;6.00;100.00
45255;BME280;30989;52.078;21.014;2023-02-17T13:33:52;165335.31;;;6.04;100.00
45255;BME280;30989;52.078;21.014;2023-02-17T13:38:59;165338.00;;;6.05;100.00
45255;BME280;30989;52.078;21.014;2023-02-17T13:41:27;165327.31;;;6.01;100.00
45255;BME280;30989;52.078;21.014;2023-02-17T13:43:53;165323.28;;;6.00;100.00
45255;BME280;30989;52.078;21.014;2023-02-17T13:46:21;165324.63;;;6.00;100.00
45255;BME280;30989;52.078;21.014;2023-02-17T13:48:58;165315.28;;;5.97;100.00
45255;BME280;30989;52.078;21.014;2023-02-17T13:51:26;165312.63;;;5.96;100.00
45255;BME280;30989;52.078;21.014;2023-02-17T13:53:52;165308.59;;;5.94;100.00
45255;BME280;30989;52.078;21.014;2023-02-17T13:56:26;165308.59;;;5.94;100.00
45255;BME280;30989;52.078;21.014;2023-02-17T13:58:52;165305.94;;;5.93;100.00
45255;BME280;30989;52.078;21.014;2023-02-17T14:01:22;165309.94;;;5.95;100.00